createdAt,value
2023-05-10T00:00:32.265Z,0.30
2023-05-10T00:03:00.304Z,0.20
2023-05-10T00:05:28.199Z,0.10
2023-05-10T00:07:56.071Z,0.10
2023-05-10T00:10:24.057Z,0.10
2023-05-10T00:12:53.243Z,0.10
2023-05-10T00:15:21.267Z,0.10
2023-05-10T00:17:49.175Z,0.10
2023-05-10T00:20:17.413Z,0.30
2023-05-10T00:22:45.551Z,0.00
2023-05-10T00:25:13.439Z,0.00
2023-05-10T00:27:41.270Z,0.00
2023-05-10T00:30:11.177Z,0.00
2023-05-10T00:32:39.100Z,0.10
2023-05-10T00:35:07.733Z,0.00
2023-05-10T00:37:35.652Z,0.00
2023-05-10T00:40:03.615Z,0.00
2023-05-10T00:42:31.504Z,0.00
2023-05-10T00:44:59.590Z,0.07
2023-05-10T00:47:29.641Z,0.27
2023-05-10T00:49:58.135Z,0.00
2023-05-10T00:52:26.985Z,0.27
2023-05-10T00:54:55.321Z,0.00
2023-05-10T00:57:23.282Z,0.10
2023-05-10T00:59:51.389Z,0.00
2023-05-10T01:02:20.021Z,0.10
2023-05-10T01:04:49.482Z,0.03
2023-05-10T01:07:17.963Z,0.00
2023-05-10T01:09:45.944Z,0.00
2023-05-10T01:12:13.913Z,0.00
2023-05-10T01:14:41.941Z,0.00
2023-05-10T01:17:12.037Z,0.03
2023-05-10T01:19:40.320Z,0.00
2023-05-10T01:22:27.457Z,0.00
2023-05-10T01:25:30.765Z,0.00
2023-05-10T01:28:19.625Z,0.00
2023-05-10T01:31:12.347Z,0.10
2023-05-10T01:33:48.962Z,0.00
2023-05-10T01:36:27.045Z,0.00
2023-05-10T01:39:01.027Z,0.00
2023-05-10T01:41:42.083Z,0.00
2023-05-10T01:44:18.729Z,0.00
2023-05-10T01:46:52.938Z,0.03
2023-05-10T01:49:27.418Z,0.00
2023-05-10T01:52:01.300Z,0.20
2023-05-10T01:54:31.163Z,0.00
2023-05-10T01:57:08.701Z,0.00
2023-05-10T01:59:41.601Z,0.10
2023-05-10T02:02:13.022Z,0.00
2023-05-10T02:04:44.239Z,0.00
2023-05-10T02:07:12.716Z,0.07
2023-05-10T02:09:40.765Z,0.10
2023-05-10T02:12:09.890Z,0.20
2023-05-10T02:14:39.899Z,0.10
2023-05-10T02:17:09.682Z,0.10
2023-05-10T02:19:40.545Z,0.10
2023-05-10T02:22:10.961Z,0.17
2023-05-10T02:24:40.705Z,0.10
2023-05-10T02:27:10.635Z,0.10
2023-05-10T02:29:39.035Z,0.10
2023-05-10T02:32:08.422Z,0.10
2023-05-10T02:34:37.025Z,0.23
2023-05-10T02:37:05.544Z,0.30
2023-05-10T02:39:36.617Z,0.20
2023-05-10T02:42:06.103Z,0.30
2023-05-10T02:44:36.213Z,0.40
2023-05-10T02:47:05.029Z,0.30
2023-05-10T02:49:32.855Z,0.50
2023-05-10T02:52:03.847Z,0.30
2023-05-10T02:54:40.318Z,0.57
2023-05-10T02:57:09.219Z,0.30
2023-05-10T02:59:38.006Z,0.37
2023-05-10T03:02:06.123Z,0.60
2023-05-10T03:04:34.156Z,0.47
2023-05-10T03:07:02.008Z,0.67
2023-05-10T03:09:31.092Z,0.20
2023-05-10T03:12:07.556Z,0.30
2023-05-10T03:14:47.503Z,0.40
2023-05-10T03:17:24.601Z,0.50
2023-05-10T03:19:56.234Z,0.40
2023-05-10T03:22:28.366Z,0.60
2023-05-10T03:24:58.654Z,0.60
2023-05-10T03:27:32.117Z,0.60
2023-05-10T03:30:02.285Z,0.30
2023-05-10T03:32:35.306Z,0.37
2023-05-10T03:35:03.397Z,0.47
2023-05-10T03:37:31.572Z,0.50
2023-05-10T03:39:59.429Z,0.40
2023-05-10T03:42:27.369Z,0.50
2023-05-10T03:44:56.701Z,0.47
2023-05-10T03:47:25.096Z,1.43
2023-05-10T03:49:53.753Z,1.43
2023-05-10T03:52:21.685Z,0.90
2023-05-10T03:54:49.726Z,0.50
2023-05-10T03:57:17.757Z,0.53
2023-05-10T03:59:46.303Z,0.60
2023-05-10T04:02:15.568Z,0.70
2023-05-10T04:04:43.473Z,0.60
2023-05-10T04:07:11.735Z,0.90
2023-05-10T04:09:40.006Z,0.80
2023-05-10T04:12:10.732Z,0.93
2023-05-10T04:14:38.864Z,0.60
2023-05-10T04:17:07.250Z,3.90
2023-05-10T04:19:36.495Z,1.07
2023-05-10T04:22:04.998Z,0.60
2023-05-10T04:24:32.864Z,0.50
2023-05-10T04:27:00.663Z,0.90
2023-05-10T04:29:28.747Z,0.80
2023-05-10T04:31:57.552Z,2.80
2023-05-10T04:34:25.444Z,1.10
2023-05-10T04:36:54.642Z,1.00
2023-05-10T04:39:22.473Z,0.97
2023-05-10T04:41:50.363Z,0.87
2023-05-10T04:44:18.154Z,0.80
2023-05-10T04:46:46.087Z,0.80
2023-05-10T04:49:13.954Z,0.90
2023-05-10T04:51:41.760Z,1.10
2023-05-10T04:54:11.306Z,0.70
2023-05-10T04:56:39.153Z,1.07
2023-05-10T04:59:07.008Z,0.83
2023-05-10T05:01:35.164Z,0.80
2023-05-10T05:04:03.061Z,0.80
2023-05-10T05:06:31.153Z,1.00
2023-05-10T05:08:58.987Z,1.00
2023-05-10T05:11:28.185Z,1.10
2023-05-10T05:13:56.021Z,1.00
2023-05-10T05:16:23.922Z,0.90
2023-05-10T05:18:52.056Z,1.00
2023-05-10T05:21:20.606Z,1.10
2023-05-10T05:23:48.514Z,1.00
2023-05-10T05:26:17.027Z,0.90
2023-05-10T05:28:46.320Z,0.80
2023-05-10T05:31:14.919Z,0.93
2023-05-10T05:33:42.765Z,1.20
2023-05-10T05:36:11.012Z,1.00
2023-05-10T05:38:38.881Z,1.23
2023-05-10T05:41:06.840Z,1.10
2023-05-10T05:43:36.665Z,1.07
2023-05-10T05:46:08.241Z,1.10
2023-05-10T05:48:36.100Z,1.20
2023-05-10T05:51:05.786Z,1.30
2023-05-10T05:53:35.158Z,1.13
2023-05-10T05:56:04.168Z,1.10
2023-05-10T05:58:31.995Z,1.30
2023-05-10T06:00:59.987Z,1.20
2023-05-10T06:03:29.344Z,1.00
2023-05-10T06:05:57.247Z,1.23
2023-05-10T06:08:25.123Z,1.30
2023-05-10T06:10:52.936Z,1.23
2023-05-10T06:13:20.873Z,1.00
2023-05-10T06:15:48.811Z,1.13
2023-05-10T06:18:16.731Z,1.20
2023-05-10T06:20:45.944Z,1.17
2023-05-10T06:23:13.777Z,1.13
2023-05-10T06:25:41.634Z,1.07
2023-05-10T06:28:09.504Z,0.70
2023-05-10T06:30:38.636Z,1.00
2023-05-10T06:33:06.774Z,0.80
2023-05-10T06:35:34.698Z,0.80
2023-05-10T06:38:03.837Z,1.00
2023-05-10T06:40:31.637Z,0.80
2023-05-10T06:42:59.469Z,0.97
2023-05-10T06:45:27.293Z,0.80
2023-05-10T06:47:55.273Z,0.83
2023-05-10T06:50:23.495Z,0.83
2023-05-10T06:52:52.954Z,0.90
2023-05-10T06:55:22.734Z,0.87
2023-05-10T06:57:51.514Z,0.93
2023-05-10T07:00:20.964Z,1.10
2023-05-10T07:02:49.587Z,1.20
2023-05-10T07:05:17.874Z,1.00
2023-05-10T07:07:46.131Z,0.90
2023-05-10T07:10:14.393Z,1.00
2023-05-10T07:12:43.792Z,1.10
2023-05-10T07:15:12.116Z,1.20
2023-05-10T07:17:40.837Z,1.20
2023-05-10T07:20:11.038Z,0.60
2023-05-10T07:22:38.909Z,0.70
2023-05-10T07:25:07.707Z,1.03
2023-05-10T07:27:35.893Z,0.90
2023-05-10T07:30:05.679Z,0.70
2023-05-10T07:32:33.759Z,0.77
2023-05-10T07:35:01.649Z,1.00
2023-05-10T07:37:29.501Z,0.70
2023-05-10T07:39:57.601Z,0.60
2023-05-10T07:42:25.554Z,0.50
2023-05-10T07:44:53.492Z,0.90
2023-05-10T07:47:22.710Z,1.10
2023-05-10T07:49:50.687Z,0.70
2023-05-10T07:52:18.601Z,0.60
2023-05-10T07:54:46.863Z,0.80
2023-05-10T07:57:18.335Z,0.80
2023-05-10T07:59:46.733Z,0.80
2023-05-10T08:02:14.566Z,0.80
2023-05-10T08:04:43.964Z,0.57
2023-05-10T08:07:12.504Z,1.20
2023-05-10T08:09:40.395Z,1.67
2023-05-10T08:12:08.404Z,1.30
2023-05-10T08:14:37.565Z,1.57
2023-05-10T08:17:05.463Z,1.30
2023-05-10T08:19:33.368Z,1.57
2023-05-10T08:22:02.708Z,1.00
2023-05-10T08:24:30.474Z,1.00
2023-05-10T08:26:58.344Z,0.43
2023-05-10T08:29:26.754Z,0.50
2023-05-10T08:31:56.395Z,0.60
2023-05-10T08:34:25.031Z,0.53
2023-05-10T08:36:53.092Z,0.40
2023-05-10T08:39:29.749Z,0.40
2023-05-10T08:42:01.875Z,0.40
2023-05-10T08:44:29.976Z,0.30
2023-05-10T08:46:59.590Z,0.30
2023-05-10T08:49:29.502Z,0.20
2023-05-10T08:51:58.171Z,0.17
2023-05-10T08:54:27.682Z,0.30
2023-05-10T08:56:55.519Z,0.23
2023-05-10T08:59:23.536Z,0.20
2023-05-10T09:01:52.344Z,0.90
2023-05-10T09:04:21.384Z,0.40
2023-05-10T09:06:49.437Z,0.20
2023-05-10T09:09:18.323Z,0.30
2023-05-10T09:11:47.933Z,0.30
2023-05-10T09:14:18.276Z,0.20
2023-05-10T09:16:46.534Z,0.10
2023-05-10T09:19:14.475Z,0.40
2023-05-10T09:21:42.591Z,0.20
2023-05-10T09:24:10.968Z,0.20
2023-05-10T09:26:50.433Z,0.30
2023-05-10T09:29:18.445Z,0.30
2023-05-10T09:31:48.517Z,0.37
2023-05-10T09:34:20.992Z,0.30
2023-05-10T09:36:59.669Z,0.13
2023-05-10T09:39:34.221Z,0.30
2023-05-10T09:42:05.719Z,0.20
2023-05-10T09:44:34.433Z,0.10
2023-05-10T09:47:02.754Z,0.27
2023-05-10T09:49:31.002Z,0.30
2023-05-10T09:52:03.569Z,0.33
2023-05-10T09:54:31.650Z,0.20
2023-05-10T09:56:59.476Z,0.53
2023-05-10T09:59:30.067Z,0.23
2023-05-10T10:01:59.398Z,0.20
2023-05-10T10:04:28.311Z,0.33
2023-05-10T10:07:05.049Z,0.30
2023-05-10T10:09:33.314Z,0.40
2023-05-10T10:12:01.664Z,0.20
2023-05-10T10:14:31.306Z,0.30
2023-05-10T10:17:08.277Z,0.20
2023-05-10T10:19:38.039Z,0.10
2023-05-10T10:22:06.706Z,0.17
2023-05-10T10:24:34.856Z,0.30
2023-05-10T10:27:18.078Z,0.20
2023-05-10T10:29:54.963Z,0.20
2023-05-10T10:32:31.296Z,0.30
2023-05-10T10:34:59.389Z,0.30
2023-05-10T10:37:45.138Z,0.30
2023-05-10T10:40:27.393Z,0.30
2023-05-10T10:42:55.660Z,0.10
2023-05-10T10:45:26.401Z,0.20
2023-05-10T10:48:24.552Z,0.20
2023-05-10T10:50:59.666Z,0.20
2023-05-10T10:53:29.990Z,0.30
2023-05-10T10:56:08.629Z,0.30
2023-05-10T10:58:37.121Z,0.27
2023-05-10T11:01:17.495Z,0.20
2023-05-10T11:04:21.671Z,0.20
2023-05-10T11:06:49.526Z,0.53
2023-05-10T11:09:18.480Z,0.23
2023-05-10T11:11:55.932Z,0.10
2023-05-10T11:14:24.713Z,0.40
2023-05-10T11:16:52.764Z,0.20
2023-05-10T11:19:22.031Z,0.40
2023-05-10T11:21:51.526Z,0.30
2023-05-10T11:24:21.444Z,0.30
2023-05-10T11:26:52.146Z,0.30
2023-05-10T11:29:21.251Z,0.30
2023-05-10T11:31:50.010Z,0.30
2023-05-10T11:34:31.079Z,0.30
2023-05-10T11:36:59.772Z,0.30
2023-05-10T11:39:29.523Z,0.30
2023-05-10T11:41:58.530Z,0.33
2023-05-10T11:44:31.349Z,0.50
2023-05-10T11:47:00.770Z,0.37
2023-05-10T11:49:30.196Z,0.50
2023-05-10T11:52:06.288Z,0.40
2023-05-10T11:54:35.793Z,0.40
2023-05-10T11:57:03.903Z,0.47
2023-05-10T11:59:31.722Z,0.37
2023-05-10T12:01:59.844Z,0.50
2023-05-10T12:04:30.502Z,0.60
2023-05-10T12:06:58.604Z,0.60
2023-05-10T12:09:39.764Z,0.53
2023-05-10T12:12:11.501Z,0.40
2023-05-10T12:14:39.344Z,0.63
2023-05-10T12:17:07.130Z,0.67
2023-05-10T12:19:41.141Z,0.57
2023-05-10T12:22:09.024Z,0.50
2023-05-10T12:24:37.054Z,0.47
2023-05-10T12:27:08.974Z,0.60
2023-05-10T12:29:36.824Z,0.40
2023-05-10T12:32:04.640Z,0.60
2023-05-10T12:34:34.940Z,0.67
2023-05-10T12:37:04.522Z,0.60
2023-05-10T12:39:42.848Z,1.73
2023-05-10T12:42:11.147Z,0.83
2023-05-10T12:44:38.901Z,0.90
2023-05-10T12:47:06.842Z,1.10
2023-05-10T12:49:34.958Z,0.70
2023-05-10T12:52:04.434Z,0.60
2023-05-10T12:54:32.298Z,0.50
2023-05-10T12:57:00.084Z,0.40
2023-05-10T12:59:28.031Z,0.63
2023-05-10T13:01:55.986Z,0.73
2023-05-10T13:04:23.768Z,0.60
2023-05-10T13:06:51.931Z,0.67
2023-05-10T13:09:21.439Z,0.63
2023-05-10T13:11:50.347Z,0.40
2023-05-10T13:14:20.365Z,0.60
2023-05-10T13:16:48.271Z,0.70
2023-05-10T13:19:16.750Z,0.83
2023-05-10T13:21:45.288Z,0.50
2023-05-10T13:24:14.657Z,0.50
2023-05-10T13:26:43.911Z,0.57
2023-05-10T13:29:11.830Z,0.70
2023-05-10T13:31:39.671Z,0.40
2023-05-10T13:34:07.852Z,0.43
2023-05-10T13:36:35.607Z,0.80
2023-05-10T13:39:04.378Z,0.40
2023-05-10T13:41:32.521Z,0.60
2023-05-10T13:44:02.662Z,0.50
2023-05-10T13:46:31.062Z,0.67
2023-05-10T13:48:58.933Z,0.50
2023-05-10T13:51:26.747Z,0.57
2023-05-10T13:53:54.508Z,0.53
2023-05-10T13:56:22.513Z,0.50
2023-05-10T13:58:51.160Z,0.30
2023-05-10T14:01:20.531Z,0.50
2023-05-10T14:03:49.148Z,0.60
2023-05-10T14:06:17.195Z,0.40
2023-05-10T14:08:45.035Z,0.60
2023-05-10T14:11:12.832Z,0.60
2023-05-10T14:13:40.667Z,0.53
2023-05-10T14:16:09.086Z,0.30
2023-05-10T14:18:38.316Z,0.70
2023-05-10T14:21:06.399Z,0.30
2023-05-10T14:23:34.205Z,0.67
2023-05-10T14:26:02.779Z,0.50
2023-05-10T14:28:32.176Z,0.30
2023-05-10T14:31:01.183Z,0.63
2023-05-10T14:33:29.156Z,0.50
2023-05-10T14:35:58.552Z,1.77
2023-05-10T14:38:26.364Z,0.60
2023-05-10T14:40:54.158Z,0.33
2023-05-10T14:43:21.922Z,0.50
2023-05-10T14:45:49.709Z,0.40
2023-05-10T14:48:18.478Z,0.63
2023-05-10T14:50:47.593Z,0.53
2023-05-10T14:53:16.886Z,0.70
2023-05-10T14:55:44.957Z,0.40
2023-05-10T14:58:12.779Z,0.40
2023-05-10T15:00:40.546Z,0.67
2023-05-10T15:03:09.097Z,0.60
2023-05-10T15:05:38.252Z,0.40
2023-05-10T15:08:06.571Z,0.60
2023-05-10T15:10:35.993Z,0.40
2023-05-10T15:13:03.806Z,0.30
2023-05-10T15:15:31.675Z,0.30
2023-05-10T15:17:59.574Z,0.63
2023-05-10T15:20:27.503Z,0.57
2023-05-10T15:22:55.324Z,0.57
2023-05-10T15:25:24.661Z,0.43
2023-05-10T15:27:53.885Z,0.40
2023-05-10T15:30:21.712Z,0.50
2023-05-10T15:32:49.712Z,0.43
2023-05-10T15:35:18.225Z,0.30
2023-05-10T15:37:46.213Z,0.30
2023-05-10T15:40:14.341Z,0.50
2023-05-10T15:42:42.155Z,0.60
2023-05-10T15:45:13.215Z,0.40
2023-05-10T15:47:41.313Z,0.30
2023-05-10T15:50:09.910Z,0.70
2023-05-10T15:52:37.712Z,0.60
2023-05-10T15:55:12.655Z,0.60
2023-05-10T15:57:41.292Z,0.70
2023-05-10T16:00:12.610Z,0.70
2023-05-10T16:02:40.582Z,0.30
2023-05-10T16:05:09.560Z,0.50
2023-05-10T16:07:37.408Z,0.30
2023-05-10T16:10:06.993Z,0.40
2023-05-10T16:12:35.612Z,0.20
2023-05-10T16:15:03.428Z,0.40
2023-05-10T16:17:32.702Z,0.40
2023-05-10T16:20:01.168Z,0.40
2023-05-10T16:22:29.593Z,0.57
2023-05-10T16:24:58.017Z,0.60
2023-05-10T16:27:28.608Z,0.60
2023-05-10T16:29:56.612Z,0.80
2023-05-10T16:32:24.503Z,0.70
2023-05-10T16:34:54.421Z,0.43
2023-05-10T16:37:22.370Z,0.70
2023-05-10T16:39:50.263Z,0.60
2023-05-10T16:42:18.141Z,0.73
2023-05-10T16:44:46.170Z,0.73
2023-05-10T16:47:14.051Z,0.40
2023-05-10T16:49:42.464Z,0.67
2023-05-10T16:52:12.085Z,0.97
2023-05-10T16:54:40.348Z,0.47
2023-05-10T16:57:08.581Z,0.60
2023-05-10T16:59:36.475Z,0.70
2023-05-10T17:02:04.572Z,0.50
2023-05-10T17:04:32.522Z,0.40
2023-05-10T17:07:00.432Z,0.40
2023-05-10T17:09:29.872Z,0.30
2023-05-10T17:11:57.921Z,0.20
2023-05-10T17:14:25.960Z,0.40
2023-05-10T17:16:55.097Z,0.30
2023-05-10T17:19:26.149Z,0.30
2023-05-10T17:21:54.205Z,0.40
2023-05-10T17:24:22.035Z,0.50
2023-05-10T17:26:51.291Z,0.50
2023-05-10T17:29:19.111Z,0.50
2023-05-10T17:31:48.057Z,0.50
2023-05-10T17:34:15.920Z,0.60
2023-05-10T17:36:43.894Z,0.50
2023-05-10T17:39:11.866Z,0.70
2023-05-10T17:41:39.811Z,0.53
2023-05-10T17:44:09.029Z,0.40
2023-05-10T17:46:37.960Z,0.40
2023-05-10T17:49:05.800Z,0.57
2023-05-10T17:51:33.665Z,0.40
2023-05-10T17:54:01.584Z,0.33
2023-05-10T17:56:29.868Z,0.50
2023-05-10T17:58:57.766Z,0.50
2023-05-10T18:01:27.003Z,1.23
2023-05-10T18:03:54.887Z,0.40
2023-05-10T18:06:23.558Z,0.40
2023-05-10T18:08:51.492Z,0.90
2023-05-10T18:11:20.116Z,0.60
2023-05-10T18:13:49.625Z,0.67
2023-05-10T18:16:17.530Z,0.50
2023-05-10T18:18:46.788Z,0.70
2023-05-10T18:21:14.689Z,0.57
2023-05-10T18:23:42.449Z,0.53
2023-05-10T18:26:10.322Z,0.33
2023-05-10T18:28:38.166Z,0.60
2023-05-10T18:31:06.008Z,0.70
2023-05-10T18:33:33.784Z,0.50
2023-05-10T18:36:04.180Z,0.60
2023-05-10T18:38:32.049Z,0.50
2023-05-10T18:40:59.925Z,1.30
2023-05-10T18:43:27.762Z,0.60
2023-05-10T18:45:55.603Z,0.60
2023-05-10T18:48:23.430Z,0.70
2023-05-10T18:50:51.688Z,0.60
2023-05-10T18:53:22.502Z,0.87
2023-05-10T18:55:56.870Z,0.50
2023-05-10T18:58:24.756Z,1.00
2023-05-10T19:00:53.250Z,0.57
2023-05-10T19:03:21.164Z,0.60
2023-05-10T19:05:49.015Z,0.70
2023-05-10T19:08:17.186Z,0.67
2023-05-10T19:10:46.828Z,0.63
2023-05-10T19:13:15.916Z,0.67
2023-05-10T19:15:43.746Z,0.60
2023-05-10T19:18:11.639Z,0.60
2023-05-10T19:20:42.265Z,0.80
2023-05-10T19:23:12.337Z,0.80
2023-05-10T19:25:42.262Z,0.50
2023-05-10T19:28:13.513Z,0.70
2023-05-10T19:30:41.388Z,0.50
2023-05-10T19:33:10.143Z,0.60
2023-05-10T19:35:38.095Z,0.90
2023-05-10T19:38:05.836Z,0.80
2023-05-10T19:40:33.765Z,0.60
2023-05-10T19:43:01.654Z,0.67
2023-05-10T19:45:30.842Z,0.87
2023-05-10T19:47:58.854Z,0.57
2023-05-10T19:50:26.605Z,0.60
2023-05-10T19:52:55.714Z,0.40
2023-05-10T19:55:28.966Z,0.37
2023-05-10T19:57:56.802Z,0.60
2023-05-10T20:00:27.267Z,0.63
2023-05-10T20:02:56.891Z,0.93
2023-05-10T20:05:25.204Z,0.60
2023-05-10T20:07:54.257Z,0.50
2023-05-10T20:10:24.294Z,0.40
2023-05-10T20:12:54.215Z,0.53
2023-05-10T20:15:23.441Z,0.50
2023-05-10T20:17:53.987Z,0.50
2023-05-10T20:20:23.878Z,0.80
2023-05-10T20:22:52.617Z,0.30
2023-05-10T20:25:20.521Z,0.43
2023-05-10T20:27:50.772Z,0.67
2023-05-10T20:30:19.097Z,0.70
2023-05-10T20:32:47.078Z,0.50
2023-05-10T20:35:15.016Z,0.30
2023-05-10T20:37:44.615Z,0.53
2023-05-10T20:40:12.980Z,0.40
2023-05-10T20:42:40.838Z,0.60
2023-05-10T20:45:09.953Z,0.67
2023-05-10T20:47:37.868Z,0.50
2023-05-10T20:50:06.540Z,0.57
2023-05-10T20:52:34.354Z,0.50
2023-05-10T20:55:03.633Z,0.70
2023-05-10T20:57:31.476Z,0.50
2023-05-10T20:59:59.359Z,0.77
2023-05-10T21:02:27.319Z,0.70
2023-05-10T21:04:57.761Z,0.70
2023-05-10T21:07:26.216Z,0.40
2023-05-10T21:09:55.105Z,0.43
2023-05-10T21:12:24.592Z,0.40
2023-05-10T21:14:52.417Z,0.57
2023-05-10T21:17:20.415Z,0.47
2023-05-10T21:19:48.428Z,0.40
2023-05-10T21:22:16.406Z,0.70
2023-05-10T21:24:44.726Z,0.40
2023-05-10T21:27:13.715Z,0.47
2023-05-10T21:29:44.246Z,0.40
2023-05-10T21:32:15.447Z,0.50
2023-05-10T21:34:45.444Z,0.70
2023-05-10T21:37:14.644Z,0.27
2023-05-10T21:39:42.871Z,0.50
2023-05-10T21:42:11.112Z,0.40
2023-05-10T21:44:39.815Z,0.30
2023-05-10T21:47:09.371Z,0.50
2023-05-10T21:49:38.801Z,0.50
2023-05-10T21:52:07.288Z,0.30
2023-05-10T21:54:35.406Z,0.70
2023-05-10T21:57:03.643Z,0.40
2023-05-10T21:59:31.480Z,0.50
2023-05-10T22:02:00.752Z,0.70
2023-05-10T22:04:30.720Z,0.60
2023-05-10T22:06:58.580Z,0.70
2023-05-10T22:09:26.399Z,0.70
2023-05-10T22:11:55.380Z,0.60
2023-05-10T22:14:24.281Z,0.70
2023-05-10T22:16:52.264Z,1.60
2023-05-10T22:19:20.191Z,0.80
2023-05-10T22:21:49.531Z,0.70
2023-05-10T22:24:17.532Z,0.50
2023-05-10T22:26:45.703Z,0.47
2023-05-10T22:29:13.552Z,0.80
2023-05-10T22:31:41.769Z,0.60
2023-05-10T22:34:09.648Z,0.57
2023-05-10T22:36:38.500Z,0.60
2023-05-10T22:39:08.822Z,0.50
2023-05-10T22:41:36.687Z,0.63
2023-05-10T22:44:05.470Z,0.60
2023-05-10T22:46:34.595Z,0.43
2023-05-10T22:49:04.040Z,0.50
2023-05-10T22:51:31.893Z,0.50
2023-05-10T22:53:59.729Z,0.70
2023-05-10T22:56:29.029Z,0.67
2023-05-10T22:58:59.797Z,0.50
2023-05-10T23:01:28.493Z,0.70
2023-05-10T23:03:57.122Z,0.63
2023-05-10T23:06:27.368Z,0.50
2023-05-10T23:08:55.343Z,0.60
2023-05-10T23:11:23.111Z,0.40
2023-05-10T23:13:52.285Z,0.60
2023-05-10T23:16:21.429Z,0.40
2023-05-10T23:18:52.143Z,0.50
2023-05-10T23:21:20.134Z,0.77
2023-05-10T23:23:49.089Z,0.40
2023-05-10T23:26:17.175Z,0.60
2023-05-10T23:28:45.907Z,0.50
2023-05-10T23:31:16.424Z,0.50
2023-05-10T23:33:44.279Z,0.47
2023-05-10T23:36:12.407Z,0.60
2023-05-10T23:38:41.224Z,0.40
2023-05-10T23:41:10.444Z,0.40
2023-05-10T23:43:39.140Z,0.30
2023-05-10T23:46:07.072Z,0.40
2023-05-10T23:48:37.058Z,0.50
2023-05-10T23:51:05.242Z,0.47
2023-05-10T23:53:34.094Z,0.80
2023-05-10T23:56:02.005Z,0.70
2023-05-10T23:58:30.509Z,0.60
